createdAt,value
2023-03-01T00:00:43.760Z,8.18
2023-03-01T00:03:11.083Z,8.42
2023-03-01T00:05:45.741Z,8.52
2023-03-01T00:08:16.302Z,8.44
2023-03-01T00:10:43.872Z,8.61
2023-03-01T00:13:11.021Z,8.44
2023-03-01T00:15:40.302Z,8.45
2023-03-01T00:18:07.446Z,8.43
2023-03-01T00:20:34.624Z,8.48
2023-03-01T00:23:01.890Z,8.48
2023-03-01T00:25:30.564Z,8.31
2023-03-01T00:27:57.796Z,8.39
2023-03-01T00:30:24.949Z,8.53
2023-03-01T00:32:52.048Z,8.47
2023-03-01T00:35:19.248Z,8.16
2023-03-01T00:37:46.434Z,8.36
2023-03-01T00:40:14.793Z,8.49
2023-03-01T00:42:43.459Z,8.47
2023-03-01T00:45:11.511Z,8.39
2023-03-01T00:47:38.677Z,8.31
2023-03-01T00:50:06.989Z,8.31
2023-03-01T00:52:34.409Z,8.08
2023-03-01T00:55:01.509Z,8.56
2023-03-01T00:57:28.842Z,8.72
2023-03-01T00:59:57.782Z,8.53
2023-03-01T01:02:25.056Z,8.43
2023-03-01T01:04:53.142Z,8.80
2023-03-01T01:07:20.266Z,8.69
2023-03-01T01:09:47.484Z,8.90
2023-03-01T01:12:14.654Z,9.52
2023-03-01T01:14:41.835Z,9.62
2023-03-01T01:17:10.666Z,9.99
2023-03-01T01:19:37.804Z,10.18
2023-03-01T01:22:04.917Z,10.23
2023-03-01T01:24:32.108Z,10.66
2023-03-01T01:26:59.496Z,11.01
2023-03-01T01:29:26.674Z,11.24
2023-03-01T01:31:53.857Z,10.84
2023-03-01T01:34:23.150Z,11.01
2023-03-01T01:36:51.957Z,11.36
2023-03-01T01:39:19.132Z,11.24
2023-03-01T01:41:46.286Z,11.07
2023-03-01T01:44:17.327Z,10.90
2023-03-01T01:46:49.300Z,11.12
2023-03-01T01:49:28.086Z,11.14
2023-03-01T01:52:03.006Z,11.29
2023-03-01T01:54:39.875Z,11.24
2023-03-01T01:57:13.622Z,11.26
2023-03-01T01:59:47.139Z,11.35
2023-03-01T02:02:14.973Z,11.41
2023-03-01T02:04:44.201Z,11.47
2023-03-01T02:07:17.763Z,11.51
2023-03-01T02:09:48.058Z,11.52
2023-03-01T02:12:16.318Z,11.32
2023-03-01T02:14:43.989Z,11.34
2023-03-01T02:17:14.530Z,11.29
2023-03-01T02:19:59.531Z,11.06
2023-03-01T02:22:31.420Z,11.23
2023-03-01T02:25:23.352Z,11.24
2023-03-01T02:27:59.191Z,11.36
2023-03-01T02:30:29.932Z,11.14
2023-03-01T02:33:00.314Z,11.33
2023-03-01T02:35:27.670Z,11.21
2023-03-01T02:37:54.849Z,11.15
2023-03-01T02:40:22.309Z,11.38
2023-03-01T02:42:54.875Z,11.31
2023-03-01T02:45:22.353Z,11.22
2023-03-01T02:47:51.473Z,11.43
2023-03-01T02:50:44.910Z,11.41
2023-03-01T02:53:18.531Z,11.48
2023-03-01T02:55:46.322Z,11.49
2023-03-01T02:58:13.973Z,11.26
2023-03-01T03:00:43.820Z,11.21
2023-03-01T03:03:16.418Z,11.21
2023-03-01T03:05:43.566Z,11.29
2023-03-01T03:08:10.764Z,11.22
2023-03-01T03:10:40.520Z,11.05
2023-03-01T03:13:10.729Z,10.97
2023-03-01T03:15:38.381Z,10.98
2023-03-01T03:18:09.473Z,11.10
2023-03-01T03:20:41.710Z,10.97
2023-03-01T03:23:09.902Z,10.84
2023-03-01T03:25:37.204Z,10.83
2023-03-01T03:28:05.537Z,10.86
2023-03-01T03:30:33.127Z,10.77
2023-03-01T03:33:00.990Z,10.67
2023-03-01T03:35:31.262Z,10.86
2023-03-01T03:38:02.093Z,10.76
2023-03-01T03:40:32.076Z,10.60
2023-03-01T03:42:59.258Z,10.71
2023-03-01T03:45:26.403Z,10.83
2023-03-01T03:47:53.556Z,10.94
2023-03-01T03:50:20.654Z,10.85
2023-03-01T03:52:48.373Z,10.53
2023-03-01T03:55:17.296Z,10.88
2023-03-01T03:57:44.440Z,10.91
2023-03-01T04:00:13.821Z,10.57
2023-03-01T04:02:42.397Z,10.65
2023-03-01T04:05:12.172Z,10.65
2023-03-01T04:07:40.093Z,10.86
2023-03-01T04:10:11.877Z,10.56
2023-03-01T04:12:40.596Z,10.72
2023-03-01T04:15:09.252Z,10.72
2023-03-01T04:17:36.558Z,10.31
2023-03-01T04:20:04.015Z,10.46
2023-03-01T04:22:31.297Z,9.84
2023-03-01T04:24:58.516Z,10.19
2023-03-01T04:27:25.658Z,10.11
2023-03-01T04:29:54.355Z,10.18
2023-03-01T04:32:21.463Z,10.51
2023-03-01T04:34:48.665Z,10.44
2023-03-01T04:37:15.816Z,10.66
2023-03-01T04:39:43.037Z,10.67
2023-03-01T04:42:10.177Z,10.53
2023-03-01T04:44:37.319Z,10.40
2023-03-01T04:47:05.937Z,10.31
2023-03-01T04:49:33.198Z,10.45
2023-03-01T04:52:00.400Z,10.52
2023-03-01T04:54:27.476Z,10.58
2023-03-01T04:56:55.039Z,10.26
2023-03-01T04:59:22.498Z,10.23
2023-03-01T05:01:49.676Z,10.52
2023-03-01T05:04:18.808Z,10.23
2023-03-01T05:06:45.937Z,10.16
2023-03-01T05:09:13.159Z,10.33
2023-03-01T05:11:40.636Z,10.25
2023-03-01T05:14:09.236Z,10.26
2023-03-01T05:16:37.942Z,10.33
2023-03-01T05:19:05.990Z,10.05
2023-03-01T05:21:34.618Z,10.10
2023-03-01T05:24:01.861Z,10.37
2023-03-01T05:26:29.042Z,10.28
2023-03-01T05:28:56.516Z,10.45
2023-03-01T05:31:24.144Z,9.92
2023-03-01T05:33:51.449Z,10.20
2023-03-01T05:36:18.610Z,10.44
2023-03-01T05:38:47.190Z,10.49
2023-03-01T05:41:16.294Z,10.18
2023-03-01T05:43:43.371Z,10.23
2023-03-01T05:46:10.542Z,10.27
2023-03-01T05:48:37.695Z,10.04
2023-03-01T05:51:05.238Z,9.55
2023-03-01T05:53:32.358Z,9.25
2023-03-01T05:56:01.053Z,9.10
2023-03-01T05:58:28.518Z,8.76
2023-03-01T06:00:57.227Z,8.61
2023-03-01T06:03:24.604Z,8.24
2023-03-01T06:05:57.587Z,8.15
2023-03-01T06:08:24.891Z,8.17
2023-03-01T06:10:52.072Z,8.26
2023-03-01T06:13:20.608Z,8.36
2023-03-01T06:15:47.780Z,8.44
2023-03-01T06:18:14.964Z,7.89
2023-03-01T06:20:42.200Z,7.89
2023-03-01T06:23:10.671Z,8.10
2023-03-01T06:25:38.645Z,8.05
2023-03-01T06:28:05.914Z,8.19
2023-03-01T06:30:34.754Z,8.33
2023-03-01T06:33:02.209Z,8.37
2023-03-01T06:35:30.933Z,8.41
2023-03-01T06:37:59.903Z,8.34
2023-03-01T06:40:27.802Z,8.35
2023-03-01T06:42:55.067Z,8.22
2023-03-01T06:45:22.682Z,8.20
2023-03-01T06:47:52.060Z,7.72
2023-03-01T06:50:20.001Z,7.97
2023-03-01T06:55:14.565Z,7.93
2023-03-01T06:57:41.858Z,7.90
2023-03-01T07:00:10.347Z,7.98
2023-03-01T07:02:37.545Z,8.14
2023-03-01T07:05:07.120Z,8.28
2023-03-01T07:07:34.397Z,8.24
2023-03-01T07:10:01.683Z,8.26
2023-03-01T07:12:28.884Z,8.11
2023-03-01T07:14:56.083Z,8.14
2023-03-01T07:17:23.282Z,8.10
2023-03-01T07:19:50.539Z,7.85
2023-03-01T07:22:19.288Z,7.96
2023-03-01T07:24:46.484Z,7.85
2023-03-01T07:27:13.650Z,7.89
2023-03-01T07:29:40.954Z,8.10
2023-03-01T07:32:08.710Z,8.11
2023-03-01T07:34:36.077Z,8.11
2023-03-01T07:37:03.199Z,8.29
2023-03-01T07:39:32.003Z,8.27
2023-03-01T07:41:59.118Z,8.28
2023-03-01T07:44:26.318Z,8.41
2023-03-01T07:46:53.457Z,8.39
2023-03-01T07:49:20.798Z,8.35
2023-03-01T07:51:48.079Z,8.34
2023-03-01T07:54:15.291Z,8.34
2023-03-01T07:56:43.895Z,8.29
2023-03-01T07:59:11.274Z,8.37
2023-03-01T08:01:38.516Z,8.18
2023-03-01T08:04:05.996Z,8.22
2023-03-01T08:06:35.256Z,8.21
2023-03-01T08:09:02.553Z,8.22
2023-03-01T08:11:29.771Z,8.06
2023-03-01T08:13:58.440Z,8.27
2023-03-01T08:16:26.021Z,8.32
2023-03-01T08:18:53.357Z,8.41
2023-03-01T08:21:20.635Z,8.23
2023-03-01T08:23:47.753Z,8.28
2023-03-01T08:26:17.796Z,8.35
2023-03-01T08:28:46.325Z,8.30
2023-03-01T08:31:21.443Z,8.53
2023-03-01T08:33:51.110Z,8.49
2023-03-01T08:36:19.179Z,8.50
2023-03-01T08:38:46.301Z,8.64
2023-03-01T08:41:13.674Z,8.52
2023-03-01T08:43:41.034Z,8.31
2023-03-01T08:46:08.847Z,8.45
2023-03-01T08:48:37.655Z,8.64
2023-03-01T08:51:13.566Z,8.55
2023-03-01T08:53:41.915Z,8.57
2023-03-01T08:56:10.421Z,8.70
2023-03-01T08:58:38.667Z,8.67
2023-03-01T09:01:09.343Z,8.71
2023-03-01T09:03:38.551Z,8.75
2023-03-01T09:06:07.475Z,8.66
2023-03-01T09:08:36.091Z,8.71
2023-03-01T09:11:03.938Z,8.36
2023-03-01T09:13:31.282Z,8.65
2023-03-01T09:15:58.515Z,8.82
2023-03-01T09:18:25.796Z,8.64
2023-03-01T09:20:54.476Z,8.78
2023-03-01T09:23:22.137Z,8.62
2023-03-01T09:25:49.383Z,8.75
2023-03-01T09:28:29.126Z,8.68
2023-03-01T09:31:00.174Z,8.88
2023-03-01T09:33:28.121Z,8.91
2023-03-01T09:35:59.927Z,8.86
2023-03-01T09:38:27.387Z,8.78
2023-03-01T09:40:55.422Z,9.00
2023-03-01T09:43:32.636Z,8.78
2023-03-01T09:46:06.023Z,8.92
2023-03-01T09:48:43.358Z,8.86
2023-03-01T09:51:21.078Z,8.95
2023-03-01T09:53:48.565Z,8.89
2023-03-01T09:56:23.120Z,8.90
2023-03-01T09:59:00.277Z,8.98
2023-03-01T10:01:35.099Z,8.91
2023-03-01T10:04:20.442Z,9.14
2023-03-01T10:07:02.858Z,9.07
2023-03-01T10:09:35.418Z,9.21
2023-03-01T10:12:06.084Z,8.84
2023-03-01T10:14:40.273Z,8.82
2023-03-01T10:17:21.201Z,9.02
2023-03-01T10:19:48.639Z,8.90
2023-03-01T10:22:21.659Z,9.25
2023-03-01T10:24:51.199Z,9.44
2023-03-01T10:27:24.113Z,10.79
2023-03-01T10:30:05.982Z,11.08
2023-03-01T10:32:33.820Z,10.67
2023-03-01T10:35:01.022Z,11.04
2023-03-01T10:37:29.819Z,11.12
2023-03-01T10:39:59.546Z,11.60
2023-03-01T10:42:33.462Z,11.06
2023-03-01T10:45:18.024Z,10.79
2023-03-01T10:47:46.020Z,10.06
2023-03-01T10:50:22.079Z,10.31
2023-03-01T10:53:00.923Z,9.87
2023-03-01T10:55:35.939Z,10.02
2023-03-01T10:58:19.080Z,9.73
2023-03-01T11:00:55.562Z,9.81
2023-03-01T11:03:25.785Z,9.81
2023-03-01T11:06:00.927Z,9.85
2023-03-01T11:08:39.383Z,10.02
2023-03-01T11:11:15.924Z,10.05
2023-03-01T11:13:53.366Z,9.98
2023-03-01T11:16:28.701Z,10.06
2023-03-01T11:19:02.381Z,9.98
2023-03-01T11:21:35.683Z,9.86
2023-03-01T11:24:11.386Z,9.82
2023-03-01T11:26:43.500Z,9.78
2023-03-01T11:29:26.549Z,9.77
2023-03-01T11:31:59.642Z,9.88
2023-03-01T11:34:43.557Z,10.05
2023-03-01T11:37:30.141Z,10.36
2023-03-01T11:40:12.032Z,10.27
2023-03-01T11:42:57.263Z,10.31
2023-03-01T11:45:34.961Z,10.43
2023-03-01T11:48:25.880Z,10.44
2023-03-01T11:50:55.855Z,10.60
2023-03-01T11:54:01.449Z,10.44
2023-03-01T11:56:35.576Z,10.56
2023-03-01T11:59:31.919Z,10.71
2023-03-01T12:02:32.077Z,10.61
2023-03-01T12:05:24.994Z,10.68
2023-03-01T12:08:01.840Z,10.79
2023-03-01T12:10:33.342Z,10.49
2023-03-01T12:13:32.484Z,10.77
2023-03-01T12:16:37.612Z,10.66
2023-03-01T12:19:35.436Z,10.66
2023-03-01T12:22:22.034Z,10.15
2023-03-01T12:25:19.757Z,9.25
2023-03-01T12:28:23.845Z,9.73
2023-03-01T12:31:15.511Z,9.87
2023-03-01T12:33:53.883Z,9.90
2023-03-01T12:36:45.049Z,9.26
2023-03-01T12:39:30.678Z,9.25
2023-03-01T12:42:09.538Z,10.01
2023-03-01T12:45:03.490Z,10.04
2023-03-01T12:47:57.403Z,10.30
2023-03-01T12:50:34.540Z,10.42
2023-03-01T12:53:01.738Z,10.49
2023-03-01T12:55:34.818Z,10.51
2023-03-01T12:58:14.737Z,10.55
2023-03-01T13:00:53.981Z,10.37
2023-03-01T13:03:37.096Z,10.71
2023-03-01T13:06:17.520Z,10.58
2023-03-01T13:08:56.355Z,10.84
2023-03-01T13:11:24.983Z,10.69
2023-03-01T13:13:52.353Z,10.48
2023-03-01T13:16:40.759Z,10.74
2023-03-01T13:19:15.815Z,12.82
2023-03-01T13:21:44.537Z,14.63
2023-03-01T13:24:30.539Z,15.84
2023-03-01T13:27:22.654Z,15.65
2023-03-01T13:29:52.027Z,14.42
2023-03-01T13:32:31.701Z,13.93
2023-03-01T13:35:50.516Z,13.44
2023-03-01T13:38:46.182Z,12.85
2023-03-01T13:41:14.957Z,12.24
2023-03-01T13:43:44.502Z,12.07
2023-03-01T13:46:19.622Z,11.73
2023-03-01T13:48:52.584Z,11.54
2023-03-01T13:51:26.537Z,11.51
2023-03-01T13:53:59.077Z,11.27
2023-03-01T13:56:29.554Z,11.19
2023-03-01T13:59:03.859Z,11.17
2023-03-01T14:01:33.811Z,10.92
2023-03-01T14:04:02.576Z,10.91
2023-03-01T14:06:31.946Z,10.80
2023-03-01T14:09:19.383Z,10.73
2023-03-01T14:12:22.986Z,10.65
2023-03-01T14:14:56.936Z,10.58
2023-03-01T14:17:39.944Z,10.12
2023-03-01T14:20:17.755Z,10.15
2023-03-01T14:22:47.233Z,10.26
2023-03-01T14:25:32.405Z,10.47
2023-03-01T14:28:05.929Z,10.21
2023-03-01T14:30:38.807Z,10.41
2023-03-01T14:33:20.007Z,10.32
2023-03-01T14:35:55.598Z,10.39
2023-03-01T14:38:24.313Z,10.49
2023-03-01T14:40:59.332Z,10.36
2023-03-01T14:43:27.165Z,10.53
2023-03-01T14:45:54.692Z,9.68
2023-03-01T14:48:23.435Z,10.01
2023-03-01T14:50:52.477Z,10.36
2023-03-01T14:53:24.009Z,10.22
2023-03-01T14:55:55.683Z,10.17
2023-03-01T14:58:26.197Z,10.05
2023-03-01T15:00:58.748Z,9.95
2023-03-01T15:03:32.379Z,9.47
2023-03-01T15:06:04.110Z,9.82
2023-03-01T15:08:34.278Z,10.03
2023-03-01T15:11:08.899Z,10.06
2023-03-01T15:13:37.434Z,10.28
2023-03-01T15:16:09.991Z,10.47
2023-03-01T15:18:39.081Z,10.33
2023-03-01T15:21:18.332Z,10.33
2023-03-01T15:23:53.310Z,10.58
2023-03-01T15:26:32.883Z,10.66
2023-03-01T15:29:02.561Z,10.74
2023-03-01T15:31:33.735Z,10.79
2023-03-01T15:34:22.281Z,10.92
2023-03-01T15:36:51.298Z,10.91
2023-03-01T15:39:36.076Z,11.06
2023-03-01T15:42:06.637Z,11.07
2023-03-01T15:44:43.304Z,11.08
2023-03-01T15:47:29.163Z,10.96
2023-03-01T15:49:58.530Z,11.04
2023-03-01T15:52:29.431Z,11.08
2023-03-01T15:54:58.612Z,11.00
2023-03-01T15:57:27.514Z,11.04
2023-03-01T15:59:56.042Z,10.99
2023-03-01T16:02:24.405Z,11.07
2023-03-01T16:04:52.225Z,11.07
2023-03-01T16:07:19.337Z,10.92
2023-03-01T16:09:46.663Z,10.75
2023-03-01T16:12:16.570Z,10.70
2023-03-01T16:14:45.562Z,10.75
2023-03-01T16:17:12.837Z,10.63
2023-03-01T16:19:40.522Z,10.63
2023-03-01T16:22:07.781Z,10.62
2023-03-01T16:24:34.937Z,10.64
2023-03-01T16:27:02.161Z,10.55
2023-03-01T16:29:29.358Z,10.34
2023-03-01T16:31:58.435Z,10.42
2023-03-01T16:34:26.003Z,10.52
2023-03-01T16:36:53.177Z,10.44
2023-03-01T16:39:20.505Z,10.47
2023-03-01T16:41:47.739Z,10.36
2023-03-01T16:44:15.820Z,10.40
2023-03-01T16:46:43.462Z,10.45
2023-03-01T16:49:12.164Z,10.45
2023-03-01T16:51:39.318Z,10.48
2023-03-01T16:54:06.684Z,10.44
2023-03-01T16:56:34.190Z,10.27
2023-03-01T16:59:04.404Z,10.23
2023-03-01T17:01:34.192Z,10.15
2023-03-01T17:04:01.807Z,10.23
2023-03-01T17:06:30.565Z,10.18
2023-03-01T17:08:58.512Z,10.03
2023-03-01T17:11:26.222Z,9.88
2023-03-01T17:13:53.402Z,9.57
2023-03-01T17:16:21.821Z,9.82
2023-03-01T17:18:49.580Z,9.86
2023-03-01T17:21:17.681Z,9.81
2023-03-01T17:23:47.386Z,9.79
2023-03-01T17:26:14.721Z,9.85
2023-03-01T17:28:42.438Z,9.82
2023-03-01T17:31:10.186Z,9.87
2023-03-01T17:33:37.402Z,9.92
2023-03-01T17:36:05.335Z,9.81
2023-03-01T17:38:32.678Z,9.82
2023-03-01T17:41:02.087Z,9.78
2023-03-01T17:43:30.056Z,9.74
2023-03-01T17:45:58.161Z,9.87
2023-03-01T17:48:25.460Z,9.90
2023-03-01T17:50:53.325Z,9.65
2023-03-01T17:53:20.597Z,9.88
2023-03-01T17:55:48.325Z,9.85
2023-03-01T17:58:17.056Z,9.97
2023-03-01T18:00:44.298Z,9.76
2023-03-01T18:03:11.637Z,9.84
2023-03-01T18:05:38.816Z,9.67
2023-03-01T18:08:06.165Z,9.55
2023-03-01T18:10:34.536Z,9.79
2023-03-01T18:13:01.844Z,9.88
2023-03-01T18:15:30.600Z,9.88
2023-03-01T18:17:57.880Z,9.96
2023-03-01T18:20:25.637Z,9.94
2023-03-01T18:22:52.896Z,9.84
2023-03-01T18:25:20.612Z,9.75
2023-03-01T18:27:47.777Z,9.93
2023-03-01T18:30:15.940Z,9.94
2023-03-01T18:32:44.537Z,10.02
2023-03-01T18:35:11.860Z,9.87
2023-03-01T18:37:39.070Z,9.79
2023-03-01T18:40:08.159Z,9.82
2023-03-01T18:42:35.417Z,9.77
2023-03-01T18:45:02.645Z,9.83
2023-03-01T18:47:29.843Z,9.93
2023-03-01T18:49:58.436Z,9.93
2023-03-01T18:52:25.799Z,9.85
2023-03-01T18:54:52.984Z,9.63
2023-03-01T18:57:20.241Z,9.78
2023-03-01T18:59:47.384Z,9.76
2023-03-01T19:02:14.668Z,9.66
2023-03-01T19:04:42.459Z,9.72
2023-03-01T19:07:11.229Z,9.73
2023-03-01T19:09:39.893Z,9.69
2023-03-01T19:12:07.467Z,9.40
2023-03-01T19:14:34.747Z,9.60
2023-03-01T19:17:02.036Z,9.64
2023-03-01T19:19:29.235Z,9.62
2023-03-01T19:22:05.813Z,9.64
2023-03-01T19:24:34.919Z,9.66
2023-03-01T19:27:02.268Z,9.57
2023-03-01T19:29:29.490Z,9.62
2023-03-01T19:31:56.677Z,9.51
2023-03-01T19:34:24.288Z,9.65
2023-03-01T19:36:51.689Z,9.66
2023-03-01T19:39:19.388Z,9.58
2023-03-01T19:41:49.999Z,9.64
2023-03-01T19:44:17.547Z,9.67
2023-03-01T19:46:44.697Z,9.57
2023-03-01T19:49:13.004Z,9.61
2023-03-01T19:51:40.638Z,9.61
2023-03-01T19:54:08.086Z,9.45
2023-03-01T19:56:35.826Z,9.42
2023-03-01T19:59:05.785Z,9.54
2023-03-01T20:01:34.812Z,9.51
2023-03-01T20:04:04.002Z,9.51
2023-03-01T20:06:31.936Z,9.49
2023-03-01T20:09:02.307Z,9.54
2023-03-01T20:11:33.765Z,9.61
2023-03-01T20:14:01.040Z,9.57
2023-03-01T20:16:30.037Z,9.42
2023-03-01T20:18:59.988Z,9.53
2023-03-01T20:21:27.470Z,9.55
2023-03-01T20:23:55.675Z,9.48
2023-03-01T20:26:23.748Z,9.55
2023-03-01T20:28:54.389Z,9.47
2023-03-01T20:31:23.855Z,9.47
2023-03-01T20:33:54.628Z,9.31
2023-03-01T20:36:21.794Z,9.63
2023-03-01T20:38:48.915Z,9.53
2023-03-01T20:41:16.029Z,9.67
2023-03-01T20:43:43.286Z,9.60
2023-03-01T20:46:12.989Z,9.53
2023-03-01T20:48:41.914Z,9.74
2023-03-01T20:51:13.252Z,9.66
2023-03-01T20:53:41.172Z,9.72
2023-03-01T20:56:11.213Z,9.79
2023-03-01T20:58:39.393Z,9.74
2023-03-01T21:01:08.478Z,9.75
2023-03-01T21:03:36.358Z,9.85
2023-03-01T21:06:06.295Z,9.78
2023-03-01T21:08:36.968Z,9.80
2023-03-01T21:11:07.051Z,9.90
2023-03-01T21:13:35.923Z,9.83
2023-03-01T21:16:06.042Z,9.87
2023-03-01T21:18:34.662Z,9.87
2023-03-01T21:21:05.583Z,9.90
2023-03-01T21:23:36.588Z,9.91
2023-03-01T21:26:06.184Z,9.85
2023-03-01T21:28:34.585Z,9.82
2023-03-01T21:31:06.447Z,9.87
2023-03-01T21:33:33.685Z,9.91
2023-03-01T21:36:02.441Z,9.85
2023-03-01T21:38:31.399Z,9.85
2023-03-01T21:41:04.281Z,9.85
2023-03-01T21:43:31.361Z,9.77
2023-03-01T21:46:01.988Z,9.85
2023-03-01T21:48:29.381Z,10.70
2023-03-01T21:50:56.753Z,13.58
2023-03-01T21:53:24.597Z,14.76
2023-03-01T21:55:52.517Z,15.60
2023-03-01T21:58:21.638Z,14.33
2023-03-01T22:00:50.597Z,13.34
2023-03-01T22:03:18.176Z,12.70
2023-03-01T22:05:54.992Z,12.09
2023-03-01T22:08:22.291Z,11.55
2023-03-01T22:10:49.503Z,11.24
2023-03-01T22:13:17.078Z,10.90
2023-03-01T22:15:46.251Z,10.63
2023-03-01T22:18:14.508Z,10.43
2023-03-01T22:20:42.489Z,10.14
2023-03-01T22:23:10.007Z,10.09
2023-03-01T22:25:42.211Z,10.08
2023-03-01T22:28:09.695Z,9.92
2023-03-01T22:30:36.941Z,9.87
2023-03-01T22:33:06.155Z,9.76
2023-03-01T22:35:33.386Z,9.73
2023-03-01T22:38:00.616Z,9.74
2023-03-01T22:40:28.028Z,9.68
2023-03-01T22:42:56.018Z,9.62
2023-03-01T22:45:23.278Z,9.72
2023-03-01T22:47:50.485Z,9.66
2023-03-01T22:50:20.559Z,9.55
2023-03-01T22:52:47.679Z,9.54
2023-03-01T22:55:14.983Z,9.53
2023-03-01T22:57:42.279Z,9.59
2023-03-01T23:00:11.340Z,9.58
2023-03-01T23:02:38.516Z,9.69
2023-03-01T23:05:06.540Z,9.66
2023-03-01T23:07:35.777Z,9.61
2023-03-01T23:10:03.015Z,9.61
2023-03-01T23:12:31.134Z,9.64
2023-03-01T23:14:58.437Z,9.62
2023-03-01T23:17:25.694Z,9.62
2023-03-01T23:19:52.771Z,9.63
2023-03-01T23:22:20.257Z,9.67
2023-03-01T23:24:48.993Z,9.69
2023-03-01T23:27:16.758Z,9.68
2023-03-01T23:29:44.859Z,9.61
2023-03-01T23:32:12.243Z,9.60
2023-03-01T23:34:39.413Z,9.60
2023-03-01T23:37:06.653Z,9.61
2023-03-01T23:39:33.866Z,9.53
2023-03-01T23:42:02.733Z,9.57
2023-03-01T23:44:29.917Z,9.53
2023-03-01T23:46:57.054Z,9.65
2023-03-01T23:49:24.240Z,9.62
2023-03-01T23:51:51.947Z,9.67
2023-03-01T23:54:22.141Z,9.60
2023-03-01T23:56:49.612Z,9.61
2023-03-01T23:59:21.333Z,9.40
